sensor_id;sensor_type;location;lat;lon;timestamp;P1;durP1;ratioP1;P2;durP2;ratioP2
3995;SDS011;2012;49.794;9.722;2023-05-10T00:02:05;1.87;;;1.50;;
3995;SDS011;2012;49.794;9.722;2023-05-10T00:04:32;2.20;;;1.30;;
3995;SDS011;2012;49.794;9.722;2023-05-10T00:06:59;2.40;;;1.40;;
3995;SDS011;2012;49.794;9.722;2023-05-10T00:09:26;6.20;;;1.60;;
3995;SDS011;2012;49.794;9.722;2023-05-10T00:11:52;2.20;;;1.40;;
3995;SDS011;2012;49.794;9.722;2023-05-10T00:14:19;1.97;;;1.77;;
3995;SDS011;2012;49.794;9.722;2023-05-10T00:16:46;2.07;;;1.50;;
3995;SDS011;2012;49.794;9.722;2023-05-10T00:19:13;1.30;;;1.20;;
3995;SDS011;2012;49.794;9.722;2023-05-10T00:21:41;2.07;;;1.13;;
3995;SDS011;2012;49.794;9.722;2023-05-10T00:24:07;1.97;;;1.30;;
3995;SDS011;2012;49.794;9.722;2023-05-10T00:26:34;3.20;;;1.73;;
3995;SDS011;2012;49.794;9.722;2023-05-10T00:29:02;1.63;;;1.47;;
3995;SDS011;2012;49.794;9.722;2023-05-10T00:31:29;2.33;;;1.20;;
3995;SDS011;2012;49.794;9.722;2023-05-10T00:33:56;1.43;;;1.23;;
3995;SDS011;2012;49.794;9.722;2023-05-10T00:36:23;2.80;;;1.30;;
3995;SDS011;2012;49.794;9.722;2023-05-10T00:38:49;1.53;;;1.10;;
3995;SDS011;2012;49.794;9.722;2023-05-10T00:41:16;3.20;;;1.70;;
3995;SDS011;2012;49.794;9.722;2023-05-10T00:43:44;1.20;;;1.10;;
3995;SDS011;2012;49.794;9.722;2023-05-10T00:46:11;1.87;;;1.53;;
3995;SDS011;2012;49.794;9.722;2023-05-10T00:48:40;7.10;;;1.60;;
3995;SDS011;2012;49.794;9.722;2023-05-10T00:51:07;3.53;;;1.40;;
3995;SDS011;2012;49.794;9.722;2023-05-10T00:53:34;1.30;;;1.20;;
3995;SDS011;2012;49.794;9.722;2023-05-10T00:56:02;1.13;;;1.00;;
3995;SDS011;2012;49.794;9.722;2023-05-10T00:58:30;1.43;;;1.33;;
3995;SDS011;2012;49.794;9.722;2023-05-10T01:00:57;2.60;;;1.13;;
3995;SDS011;2012;49.794;9.722;2023-05-10T01:03:25;1.50;;;1.40;;
3995;SDS011;2012;49.794;9.722;2023-05-10T01:05:52;1.63;;;1.30;;
3995;SDS011;2012;49.794;9.722;2023-05-10T01:08:19;2.50;;;1.40;;
3995;SDS011;2012;49.794;9.722;2023-05-10T01:10:46;1.80;;;1.67;;
3995;SDS011;2012;49.794;9.722;2023-05-10T01:13:18;1.63;;;1.30;;
3995;SDS011;2012;49.794;9.722;2023-05-10T01:16:00;1.50;;;1.40;;
3995;SDS011;2012;49.794;9.722;2023-05-10T01:18:29;1.27;;;1.10;;
3995;SDS011;2012;49.794;9.722;2023-05-10T01:21:04;2.87;;;1.90;;
3995;SDS011;2012;49.794;9.722;2023-05-10T01:23:45;1.40;;;1.10;;
3995;SDS011;2012;49.794;9.722;2023-05-10T01:26:55;2.07;;;1.30;;
3995;SDS011;2012;49.794;9.722;2023-05-10T01:32:42;1.30;;;1.00;;
3995;SDS011;2012;49.794;9.722;2023-05-10T01:35:35;2.70;;;0.90;;
3995;SDS011;2012;49.794;9.722;2023-05-10T01:38:12;1.40;;;1.10;;
3995;SDS011;2012;49.794;9.722;2023-05-10T01:43:28;1.53;;;1.00;;
3995;SDS011;2012;49.794;9.722;2023-05-10T01:46:08;3.70;;;1.03;;
3995;SDS011;2012;49.794;9.722;2023-05-10T01:48:43;2.97;;;0.90;;
3995;SDS011;2012;49.794;9.722;2023-05-10T01:51:15;1.17;;;0.93;;
3995;SDS011;2012;49.794;9.722;2023-05-10T01:53:46;1.13;;;1.03;;
3995;SDS011;2012;49.794;9.722;2023-05-10T01:56:15;1.93;;;0.70;;
3995;SDS011;2012;49.794;9.722;2023-05-10T01:58:44;3.37;;;1.03;;
3995;SDS011;2012;49.794;9.722;2023-05-10T02:01:15;1.07;;;0.70;;
3995;SDS011;2012;49.794;9.722;2023-05-10T02:03:43;0.90;;;0.73;;
3995;SDS011;2012;49.794;9.722;2023-05-10T02:06:11;5.60;;;0.83;;
3995;SDS011;2012;49.794;9.722;2023-05-10T02:08:41;2.87;;;0.70;;
3995;SDS011;2012;49.794;9.722;2023-05-10T02:11:09;3.60;;;0.80;;
3995;SDS011;2012;49.794;9.722;2023-05-10T02:13:40;0.80;;;0.70;;
3995;SDS011;2012;49.794;9.722;2023-05-10T02:16:09;0.90;;;0.80;;
3995;SDS011;2012;49.794;9.722;2023-05-10T02:18:37;0.83;;;0.77;;
3995;SDS011;2012;49.794;9.722;2023-05-10T02:21:08;1.07;;;0.77;;
3995;SDS011;2012;49.794;9.722;2023-05-10T02:23:38;0.80;;;0.80;;
3995;SDS011;2012;49.794;9.722;2023-05-10T02:26:06;5.33;;;0.80;;
3995;SDS011;2012;49.794;9.722;2023-05-10T02:28:34;0.80;;;0.70;;
3995;SDS011;2012;49.794;9.722;2023-05-10T02:31:04;2.37;;;0.87;;
3995;SDS011;2012;49.794;9.722;2023-05-10T02:33:32;0.70;;;0.70;;
3995;SDS011;2012;49.794;9.722;2023-05-10T02:36:00;1.13;;;0.70;;
3995;SDS011;2012;49.794;9.722;2023-05-10T02:38:28;4.70;;;0.90;;
3995;SDS011;2012;49.794;9.722;2023-05-10T02:40:57;0.80;;;0.80;;
3995;SDS011;2012;49.794;9.722;2023-05-10T02:43:25;1.83;;;0.70;;
3995;SDS011;2012;49.794;9.722;2023-05-10T02:45:55;0.70;;;0.70;;
3995;SDS011;2012;49.794;9.722;2023-05-10T02:48:22;1.23;;;0.60;;
3995;SDS011;2012;49.794;9.722;2023-05-10T02:50:48;8.33;;;0.80;;
3995;SDS011;2012;49.794;9.722;2023-05-10T02:53:18;2.97;;;0.80;;
3995;SDS011;2012;49.794;9.722;2023-05-10T02:55:57;1.80;;;0.80;;
3995;SDS011;2012;49.794;9.722;2023-05-10T02:58:27;1.37;;;0.80;;
3995;SDS011;2012;49.794;9.722;2023-05-10T03:00:53;0.80;;;0.70;;
3995;SDS011;2012;49.794;9.722;2023-05-10T03:03:20;0.90;;;0.70;;
3995;SDS011;2012;49.794;9.722;2023-05-10T03:05:49;3.40;;;0.80;;
3995;SDS011;2012;49.794;9.722;2023-05-10T03:08:16;3.10;;;0.80;;
3995;SDS011;2012;49.794;9.722;2023-05-10T03:11:01;0.70;;;0.70;;
3995;SDS011;2012;49.794;9.722;2023-05-10T03:13:52;7.80;;;0.77;;
3995;SDS011;2012;49.794;9.722;2023-05-10T03:16:45;2.57;;;0.67;;
3995;SDS011;2012;49.794;9.722;2023-05-10T03:19:17;2.40;;;0.70;;
3995;SDS011;2012;49.794;9.722;2023-05-10T03:21:53;1.00;;;0.70;;
3995;SDS011;2012;49.794;9.722;2023-05-10T03:24:22;0.70;;;0.70;;
3995;SDS011;2012;49.794;9.722;2023-05-10T03:26:52;3.90;;;0.80;;
3995;SDS011;2012;49.794;9.722;2023-05-10T03:29:25;2.83;;;0.80;;
3995;SDS011;2012;49.794;9.722;2023-05-10T03:31:53;3.27;;;0.80;;
3995;SDS011;2012;49.794;9.722;2023-05-10T03:34:23;0.70;;;0.60;;
3995;SDS011;2012;49.794;9.722;2023-05-10T03:36:51;3.47;;;0.93;;
3995;SDS011;2012;49.794;9.722;2023-05-10T03:39:18;3.23;;;0.73;;
3995;SDS011;2012;49.794;9.722;2023-05-10T03:41:51;12.67;;;0.80;;
3995;SDS011;2012;49.794;9.722;2023-05-10T03:44:18;1.10;;;0.80;;
3995;SDS011;2012;49.794;9.722;2023-05-10T03:46:45;2.40;;;0.73;;
3995;SDS011;2012;49.794;9.722;2023-05-10T03:49:12;4.97;;;0.80;;
3995;SDS011;2012;49.794;9.722;2023-05-10T03:51:39;0.90;;;0.80;;
3995;SDS011;2012;49.794;9.722;2023-05-10T03:54:06;0.70;;;0.70;;
3995;SDS011;2012;49.794;9.722;2023-05-10T03:56:33;2.53;;;0.80;;
3995;SDS011;2012;49.794;9.722;2023-05-10T03:59:00;1.67;;;0.87;;
3995;SDS011;2012;49.794;9.722;2023-05-10T04:01:29;1.13;;;0.87;;
3995;SDS011;2012;49.794;9.722;2023-05-10T04:03:56;5.50;;;0.80;;
3995;SDS011;2012;49.794;9.722;2023-05-10T04:06:23;2.40;;;0.70;;
3995;SDS011;2012;49.794;9.722;2023-05-10T04:08:51;2.70;;;0.70;;
3995;SDS011;2012;49.794;9.722;2023-05-10T04:11:18;0.80;;;0.80;;
3995;SDS011;2012;49.794;9.722;2023-05-10T04:13:44;2.90;;;0.70;;
3995;SDS011;2012;49.794;9.722;2023-05-10T04:16:11;1.53;;;0.70;;
3995;SDS011;2012;49.794;9.722;2023-05-10T04:18:38;4.37;;;1.00;;
3995;SDS011;2012;49.794;9.722;2023-05-10T04:21:10;0.90;;;0.80;;
3995;SDS011;2012;49.794;9.722;2023-05-10T04:23:38;1.83;;;0.70;;
3995;SDS011;2012;49.794;9.722;2023-05-10T04:26:06;1.23;;;1.13;;
3995;SDS011;2012;49.794;9.722;2023-05-10T04:28:33;4.70;;;0.90;;
3995;SDS011;2012;49.794;9.722;2023-05-10T04:31:00;12.20;;;1.10;;
3995;SDS011;2012;49.794;9.722;2023-05-10T04:33:28;0.90;;;0.80;;
3995;SDS011;2012;49.794;9.722;2023-05-10T04:35:56;9.90;;;0.97;;
3995;SDS011;2012;49.794;9.722;2023-05-10T04:38:23;9.20;;;1.20;;
3995;SDS011;2012;49.794;9.722;2023-05-10T04:40:51;2.40;;;0.73;;
3995;SDS011;2012;49.794;9.722;2023-05-10T04:43:18;2.60;;;0.70;;
3995;SDS011;2012;49.794;9.722;2023-05-10T04:45:45;0.73;;;0.73;;
3995;SDS011;2012;49.794;9.722;2023-05-10T04:48:11;1.00;;;0.90;;
3995;SDS011;2012;49.794;9.722;2023-05-10T04:50:39;2.30;;;0.77;;
3995;SDS011;2012;49.794;9.722;2023-05-10T04:53:06;4.10;;;0.80;;
3995;SDS011;2012;49.794;9.722;2023-05-10T04:55:33;2.80;;;1.10;;
3995;SDS011;2012;49.794;9.722;2023-05-10T04:57:59;7.03;;;0.90;;
3995;SDS011;2012;49.794;9.722;2023-05-10T05:00:26;5.73;;;0.90;;
3995;SDS011;2012;49.794;9.722;2023-05-10T05:02:53;1.67;;;1.00;;
3995;SDS011;2012;49.794;9.722;2023-05-10T05:05:20;5.17;;;0.93;;
3995;SDS011;2012;49.794;9.722;2023-05-10T05:07:47;4.43;;;0.90;;
3995;SDS011;2012;49.794;9.722;2023-05-10T05:10:14;2.40;;;1.00;;
3995;SDS011;2012;49.794;9.722;2023-05-10T05:12:41;8.20;;;1.23;;
3995;SDS011;2012;49.794;9.722;2023-05-10T05:15:09;10.47;;;0.90;;
3995;SDS011;2012;49.794;9.722;2023-05-10T05:17:37;1.20;;;0.80;;
3995;SDS011;2012;49.794;9.722;2023-05-10T05:20:04;2.27;;;0.90;;
3995;SDS011;2012;49.794;9.722;2023-05-10T05:22:31;2.00;;;0.90;;
3995;SDS011;2012;49.794;9.722;2023-05-10T05:24:58;3.40;;;1.00;;
3995;SDS011;2012;49.794;9.722;2023-05-10T05:27:25;8.23;;;1.00;;
3995;SDS011;2012;49.794;9.722;2023-05-10T05:29:54;1.27;;;1.17;;
3995;SDS011;2012;49.794;9.722;2023-05-10T05:32:22;4.10;;;1.20;;
3995;SDS011;2012;49.794;9.722;2023-05-10T05:34:50;1.20;;;1.10;;
3995;SDS011;2012;49.794;9.722;2023-05-10T05:37:19;1.10;;;1.00;;
3995;SDS011;2012;49.794;9.722;2023-05-10T05:39:47;2.87;;;1.00;;
3995;SDS011;2012;49.794;9.722;2023-05-10T05:42:14;1.10;;;1.00;;
3995;SDS011;2012;49.794;9.722;2023-05-10T05:44:42;1.10;;;1.00;;
3995;SDS011;2012;49.794;9.722;2023-05-10T05:47:09;1.97;;;1.20;;
3995;SDS011;2012;49.794;9.722;2023-05-10T05:49:36;3.23;;;1.17;;
3995;SDS011;2012;49.794;9.722;2023-05-10T05:52:03;2.60;;;1.03;;
3995;SDS011;2012;49.794;9.722;2023-05-10T05:54:30;1.37;;;0.97;;
3995;SDS011;2012;49.794;9.722;2023-05-10T05:56:58;1.40;;;1.10;;
3995;SDS011;2012;49.794;9.722;2023-05-10T05:59:26;2.53;;;1.00;;
3995;SDS011;2012;49.794;9.722;2023-05-10T06:01:53;3.37;;;1.53;;
3995;SDS011;2012;49.794;9.722;2023-05-10T06:04:20;1.47;;;1.37;;
3995;SDS011;2012;49.794;9.722;2023-05-10T06:06:48;2.17;;;1.10;;
3995;SDS011;2012;49.794;9.722;2023-05-10T06:09:15;4.40;;;1.17;;
3995;SDS011;2012;49.794;9.722;2023-05-10T06:11:42;1.20;;;1.10;;
3995;SDS011;2012;49.794;9.722;2023-05-10T06:14:09;4.80;;;1.13;;
3995;SDS011;2012;49.794;9.722;2023-05-10T06:16:37;1.30;;;1.20;;
3995;SDS011;2012;49.794;9.722;2023-05-10T06:19:03;1.77;;;1.30;;
3995;SDS011;2012;49.794;9.722;2023-05-10T06:21:30;2.73;;;1.40;;
3995;SDS011;2012;49.794;9.722;2023-05-10T06:23:57;1.93;;;1.30;;
3995;SDS011;2012;49.794;9.722;2023-05-10T06:26:24;5.03;;;1.47;;
3995;SDS011;2012;49.794;9.722;2023-05-10T06:28:51;4.23;;;1.33;;
3995;SDS011;2012;49.794;9.722;2023-05-10T06:31:17;1.40;;;1.30;;
3995;SDS011;2012;49.794;9.722;2023-05-10T06:33:44;13.87;;;2.00;;
3995;SDS011;2012;49.794;9.722;2023-05-10T06:36:12;2.20;;;1.40;;
3995;SDS011;2012;49.794;9.722;2023-05-10T06:38:39;2.07;;;1.47;;
3995;SDS011;2012;49.794;9.722;2023-05-10T06:41:06;1.70;;;1.60;;
3995;SDS011;2012;49.794;9.722;2023-05-10T06:43:33;1.50;;;1.40;;
3995;SDS011;2012;49.794;9.722;2023-05-10T06:46:01;1.50;;;1.20;;
3995;SDS011;2012;49.794;9.722;2023-05-10T06:48:28;5.70;;;1.80;;
3995;SDS011;2012;49.794;9.722;2023-05-10T06:50:55;1.83;;;1.20;;
3995;SDS011;2012;49.794;9.722;2023-05-10T06:53:21;2.43;;;1.33;;
3995;SDS011;2012;49.794;9.722;2023-05-10T06:55:49;2.17;;;1.43;;
3995;SDS011;2012;49.794;9.722;2023-05-10T06:58:15;1.53;;;1.20;;
3995;SDS011;2012;49.794;9.722;2023-05-10T07:00:42;2.60;;;1.87;;
3995;SDS011;2012;49.794;9.722;2023-05-10T07:03:12;2.53;;;1.43;;
3995;SDS011;2012;49.794;9.722;2023-05-10T07:05:39;2.03;;;1.53;;
3995;SDS011;2012;49.794;9.722;2023-05-10T07:08:06;4.10;;;1.70;;
3995;SDS011;2012;49.794;9.722;2023-05-10T07:10:32;2.93;;;1.20;;
3995;SDS011;2012;49.794;9.722;2023-05-10T07:12:59;5.60;;;1.67;;
3995;SDS011;2012;49.794;9.722;2023-05-10T07:15:27;4.73;;;1.80;;
3995;SDS011;2012;49.794;9.722;2023-05-10T07:17:54;3.57;;;1.47;;
3995;SDS011;2012;49.794;9.722;2023-05-10T07:20:21;2.93;;;1.70;;
3995;SDS011;2012;49.794;9.722;2023-05-10T07:22:48;8.53;;;1.50;;
3995;SDS011;2012;49.794;9.722;2023-05-10T07:25:15;3.07;;;1.53;;
3995;SDS011;2012;49.794;9.722;2023-05-10T07:27:42;3.17;;;1.60;;
3995;SDS011;2012;49.794;9.722;2023-05-10T07:30:09;2.77;;;1.97;;
3995;SDS011;2012;49.794;9.722;2023-05-10T07:32:36;3.30;;;1.57;;
3995;SDS011;2012;49.794;9.722;2023-05-10T07:35:03;4.30;;;1.80;;
3995;SDS011;2012;49.794;9.722;2023-05-10T07:37:31;1.83;;;1.67;;
3995;SDS011;2012;49.794;9.722;2023-05-10T07:39:58;3.43;;;1.77;;
3995;SDS011;2012;49.794;9.722;2023-05-10T07:42:25;7.50;;;2.23;;
3995;SDS011;2012;49.794;9.722;2023-05-10T07:44:52;3.43;;;1.73;;
3995;SDS011;2012;49.794;9.722;2023-05-10T07:47:19;8.23;;;1.67;;
3995;SDS011;2012;49.794;9.722;2023-05-10T07:49:46;3.50;;;1.50;;
3995;SDS011;2012;49.794;9.722;2023-05-10T07:52:12;4.40;;;1.50;;
3995;SDS011;2012;49.794;9.722;2023-05-10T07:54:39;5.83;;;1.40;;
3995;SDS011;2012;49.794;9.722;2023-05-10T07:57:06;7.90;;;1.37;;
3995;SDS011;2012;49.794;9.722;2023-05-10T07:59:33;2.00;;;1.63;;
3995;SDS011;2012;49.794;9.722;2023-05-10T08:02:00;7.33;;;1.30;;
3995;SDS011;2012;49.794;9.722;2023-05-10T08:04:27;3.40;;;1.60;;
3995;SDS011;2012;49.794;9.722;2023-05-10T08:06:54;3.20;;;1.33;;
3995;SDS011;2012;49.794;9.722;2023-05-10T08:09:21;2.30;;;1.30;;
3995;SDS011;2012;49.794;9.722;2023-05-10T08:11:50;4.93;;;1.80;;
3995;SDS011;2012;49.794;9.722;2023-05-10T08:14:17;1.80;;;1.13;;
3995;SDS011;2012;49.794;9.722;2023-05-10T08:16:44;4.20;;;1.50;;
3995;SDS011;2012;49.794;9.722;2023-05-10T08:19:11;3.10;;;1.40;;
3995;SDS011;2012;49.794;9.722;2023-05-10T08:21:38;8.50;;;1.43;;
3995;SDS011;2012;49.794;9.722;2023-05-10T08:24:06;2.80;;;1.33;;
3995;SDS011;2012;49.794;9.722;2023-05-10T08:26:33;4.50;;;2.10;;
3995;SDS011;2012;49.794;9.722;2023-05-10T08:29:00;3.03;;;1.10;;
3995;SDS011;2012;49.794;9.722;2023-05-10T08:31:27;3.93;;;1.40;;
3995;SDS011;2012;49.794;9.722;2023-05-10T08:33:54;7.93;;;1.47;;
3995;SDS011;2012;49.794;9.722;2023-05-10T08:36:21;4.17;;;1.50;;
3995;SDS011;2012;49.794;9.722;2023-05-10T08:38:50;2.30;;;1.60;;
3995;SDS011;2012;49.794;9.722;2023-05-10T08:41:21;8.57;;;1.70;;
3995;SDS011;2012;49.794;9.722;2023-05-10T08:43:51;1.93;;;1.40;;
3995;SDS011;2012;49.794;9.722;2023-05-10T08:46:19;14.03;;;1.67;;
3995;SDS011;2012;49.794;9.722;2023-05-10T08:48:47;7.73;;;1.40;;
3995;SDS011;2012;49.794;9.722;2023-05-10T08:51:22;5.20;;;1.47;;
3995;SDS011;2012;49.794;9.722;2023-05-10T08:53:52;3.93;;;1.90;;
3995;SDS011;2012;49.794;9.722;2023-05-10T08:56:19;6.30;;;1.70;;
3995;SDS011;2012;49.794;9.722;2023-05-10T08:58:47;1.70;;;1.50;;
3995;SDS011;2012;49.794;9.722;2023-05-10T09:01:15;1.53;;;1.37;;
3995;SDS011;2012;49.794;9.722;2023-05-10T09:03:42;4.73;;;2.00;;
3995;SDS011;2012;49.794;9.722;2023-05-10T09:06:12;4.20;;;1.90;;
3995;SDS011;2012;49.794;9.722;2023-05-10T09:08:41;4.27;;;1.30;;
3995;SDS011;2012;49.794;9.722;2023-05-10T09:11:09;1.80;;;1.40;;
3995;SDS011;2012;49.794;9.722;2023-05-10T09:13:36;4.00;;;2.03;;
3995;SDS011;2012;49.794;9.722;2023-05-10T09:16:03;4.30;;;1.57;;
3995;SDS011;2012;49.794;9.722;2023-05-10T09:18:46;1.90;;;1.50;;
3995;SDS011;2012;49.794;9.722;2023-05-10T09:21:13;3.63;;;1.67;;
3995;SDS011;2012;49.794;9.722;2023-05-10T09:23:46;4.90;;;1.33;;
3995;SDS011;2012;49.794;9.722;2023-05-10T09:26:14;1.83;;;1.40;;
3995;SDS011;2012;49.794;9.722;2023-05-10T09:28:57;4.60;;;1.43;;
3995;SDS011;2012;49.794;9.722;2023-05-10T09:31:42;2.20;;;1.63;;
3995;SDS011;2012;49.794;9.722;2023-05-10T09:34:18;3.87;;;1.87;;
3995;SDS011;2012;49.794;9.722;2023-05-10T09:36:52;2.07;;;1.40;;
3995;SDS011;2012;49.794;9.722;2023-05-10T09:39:20;1.90;;;1.40;;
3995;SDS011;2012;49.794;9.722;2023-05-10T09:41:47;3.23;;;1.40;;
3995;SDS011;2012;49.794;9.722;2023-05-10T09:44:16;1.80;;;1.20;;
3995;SDS011;2012;49.794;9.722;2023-05-10T09:46:48;3.07;;;1.30;;
3995;SDS011;2012;49.794;9.722;2023-05-10T09:49:16;1.53;;;1.07;;
3995;SDS011;2012;49.794;9.722;2023-05-10T09:51:43;7.30;;;1.70;;
3995;SDS011;2012;49.794;9.722;2023-05-10T09:54:14;2.10;;;1.20;;
3995;SDS011;2012;49.794;9.722;2023-05-10T09:56:42;2.80;;;1.50;;
3995;SDS011;2012;49.794;9.722;2023-05-10T09:59:10;1.60;;;1.00;;
3995;SDS011;2012;49.794;9.722;2023-05-10T10:01:38;4.47;;;1.50;;
3995;SDS011;2012;49.794;9.722;2023-05-10T10:04:06;1.30;;;0.90;;
3995;SDS011;2012;49.794;9.722;2023-05-10T10:06:37;7.27;;;1.50;;
3995;SDS011;2012;49.794;9.722;2023-05-10T10:09:05;3.53;;;1.17;;
3995;SDS011;2012;49.794;9.722;2023-05-10T10:11:34;2.00;;;1.20;;
3995;SDS011;2012;49.794;9.722;2023-05-10T10:14:02;1.23;;;1.00;;
3995;SDS011;2012;49.794;9.722;2023-05-10T10:16:29;1.53;;;1.07;;
3995;SDS011;2012;49.794;9.722;2023-05-10T10:18:57;2.90;;;1.20;;
3995;SDS011;2012;49.794;9.722;2023-05-10T10:21:24;2.30;;;1.27;;
3995;SDS011;2012;49.794;9.722;2023-05-10T10:23:51;1.93;;;0.93;;
3995;SDS011;2012;49.794;9.722;2023-05-10T10:26:19;2.20;;;1.10;;
3995;SDS011;2012;49.794;9.722;2023-05-10T10:31:44;3.40;;;1.47;;
3995;SDS011;2012;49.794;9.722;2023-05-10T10:34:38;1.43;;;0.93;;
3995;SDS011;2012;49.794;9.722;2023-05-10T10:37:05;1.07;;;1.00;;
3995;SDS011;2012;49.794;9.722;2023-05-10T10:39:33;1.73;;;1.07;;
3995;SDS011;2012;49.794;9.722;2023-05-10T10:42:03;2.30;;;1.20;;
3995;SDS011;2012;49.794;9.722;2023-05-10T10:49:27;4.73;;;1.20;;
3995;SDS011;2012;49.794;9.722;2023-05-10T10:52:13;2.20;;;1.30;;
3995;SDS011;2012;49.794;9.722;2023-05-10T10:54:58;1.47;;;1.10;;
3995;SDS011;2012;49.794;9.722;2023-05-10T10:57:27;2.13;;;1.00;;
3995;SDS011;2012;49.794;9.722;2023-05-10T11:02:50;2.90;;;1.67;;
3995;SDS011;2012;49.794;9.722;2023-05-10T11:08:16;1.37;;;1.10;;
3995;SDS011;2012;49.794;9.722;2023-05-10T11:11:14;1.30;;;0.87;;
3995;SDS011;2012;49.794;9.722;2023-05-10T11:13:42;2.10;;;1.00;;
3995;SDS011;2012;49.794;9.722;2023-05-10T11:16:19;2.13;;;1.00;;
3995;SDS011;2012;49.794;9.722;2023-05-10T11:21:30;1.30;;;0.90;;
3995;SDS011;2012;49.794;9.722;2023-05-10T11:23:59;0.90;;;0.80;;
3995;SDS011;2012;49.794;9.722;2023-05-10T11:26:35;3.43;;;0.90;;
3995;SDS011;2012;49.794;9.722;2023-05-10T11:29:03;1.20;;;0.80;;
3995;SDS011;2012;49.794;9.722;2023-05-10T11:31:31;2.60;;;0.90;;
3995;SDS011;2012;49.794;9.722;2023-05-10T11:33:58;1.70;;;1.10;;
3995;SDS011;2012;49.794;9.722;2023-05-10T11:36:28;1.57;;;1.00;;
3995;SDS011;2012;49.794;9.722;2023-05-10T11:38:58;1.37;;;0.90;;
3995;SDS011;2012;49.794;9.722;2023-05-10T11:41:27;2.80;;;0.93;;
3995;SDS011;2012;49.794;9.722;2023-05-10T11:43:56;1.87;;;0.97;;
3995;SDS011;2012;49.794;9.722;2023-05-10T11:46:24;1.33;;;1.20;;
3995;SDS011;2012;49.794;9.722;2023-05-10T11:48:56;3.30;;;1.10;;
3995;SDS011;2012;49.794;9.722;2023-05-10T11:51:26;1.20;;;0.80;;
3995;SDS011;2012;49.794;9.722;2023-05-10T11:53:55;1.30;;;0.90;;
3995;SDS011;2012;49.794;9.722;2023-05-10T11:56:23;1.67;;;0.93;;
3995;SDS011;2012;49.794;9.722;2023-05-10T11:58:53;6.07;;;1.13;;
3995;SDS011;2012;49.794;9.722;2023-05-10T12:01:22;1.30;;;1.00;;
3995;SDS011;2012;49.794;9.722;2023-05-10T12:03:53;1.53;;;1.03;;
3995;SDS011;2012;49.794;9.722;2023-05-10T12:06:28;3.50;;;1.43;;
3995;SDS011;2012;49.794;9.722;2023-05-10T12:08:57;2.80;;;1.13;;
3995;SDS011;2012;49.794;9.722;2023-05-10T12:11:25;3.03;;;1.47;;
3995;SDS011;2012;49.794;9.722;2023-05-10T12:13:53;4.27;;;1.10;;
3995;SDS011;2012;49.794;9.722;2023-05-10T12:16:25;3.77;;;1.00;;
3995;SDS011;2012;49.794;9.722;2023-05-10T12:18:56;1.63;;;1.10;;
3995;SDS011;2012;49.794;9.722;2023-05-10T12:21:24;4.93;;;1.80;;
3995;SDS011;2012;49.794;9.722;2023-05-10T12:23:53;2.30;;;1.20;;
3995;SDS011;2012;49.794;9.722;2023-05-10T12:26:22;11.70;;;1.83;;
3995;SDS011;2012;49.794;9.722;2023-05-10T12:28:49;6.43;;;1.27;;
3995;SDS011;2012;49.794;9.722;2023-05-10T12:31:16;6.23;;;1.47;;
3995;SDS011;2012;49.794;9.722;2023-05-10T12:33:43;1.20;;;1.00;;
3995;SDS011;2012;49.794;9.722;2023-05-10T12:36:12;3.37;;;1.00;;
3995;SDS011;2012;49.794;9.722;2023-05-10T12:38:41;1.97;;;0.93;;
3995;SDS011;2012;49.794;9.722;2023-05-10T12:41:17;2.50;;;1.10;;
3995;SDS011;2012;49.794;9.722;2023-05-10T12:43:45;2.03;;;1.00;;
3995;SDS011;2012;49.794;9.722;2023-05-10T12:46:16;2.40;;;1.40;;
3995;SDS011;2012;49.794;9.722;2023-05-10T12:48:44;5.63;;;1.00;;
3995;SDS011;2012;49.794;9.722;2023-05-10T12:51:12;1.20;;;1.10;;
3995;SDS011;2012;49.794;9.722;2023-05-10T12:53:42;2.40;;;1.00;;
3995;SDS011;2012;49.794;9.722;2023-05-10T12:56:11;4.30;;;1.23;;
3995;SDS011;2012;49.794;9.722;2023-05-10T12:58:38;2.27;;;1.13;;
3995;SDS011;2012;49.794;9.722;2023-05-10T13:01:05;1.23;;;1.10;;
3995;SDS011;2012;49.794;9.722;2023-05-10T13:03:32;1.87;;;1.10;;
3995;SDS011;2012;49.794;9.722;2023-05-10T13:05:59;2.93;;;1.30;;
3995;SDS011;2012;49.794;9.722;2023-05-10T13:08:26;3.17;;;1.10;;
3995;SDS011;2012;49.794;9.722;2023-05-10T13:10:53;3.57;;;1.17;;
3995;SDS011;2012;49.794;9.722;2023-05-10T13:13:21;1.23;;;1.00;;
3995;SDS011;2012;49.794;9.722;2023-05-10T13:15:48;2.70;;;1.10;;
3995;SDS011;2012;49.794;9.722;2023-05-10T13:18:14;8.03;;;1.00;;
3995;SDS011;2012;49.794;9.722;2023-05-10T13:20:41;5.63;;;1.33;;
3995;SDS011;2012;49.794;9.722;2023-05-10T13:23:10;3.87;;;1.27;;
3995;SDS011;2012;49.794;9.722;2023-05-10T13:25:37;3.87;;;1.30;;
3995;SDS011;2012;49.794;9.722;2023-05-10T13:28:04;4.67;;;1.40;;
3995;SDS011;2012;49.794;9.722;2023-05-10T13:30:31;7.00;;;2.03;;
3995;SDS011;2012;49.794;9.722;2023-05-10T13:32:58;2.63;;;1.37;;
3995;SDS011;2012;49.794;9.722;2023-05-10T13:35:25;4.27;;;1.50;;
3995;SDS011;2012;49.794;9.722;2023-05-10T13:37:52;10.83;;;1.90;;
3995;SDS011;2012;49.794;9.722;2023-05-10T13:40:19;4.87;;;1.57;;
3995;SDS011;2012;49.794;9.722;2023-05-10T13:42:46;2.60;;;1.17;;
3995;SDS011;2012;49.794;9.722;2023-05-10T13:45:13;5.20;;;1.20;;
3995;SDS011;2012;49.794;9.722;2023-05-10T13:47:41;1.77;;;1.40;;
3995;SDS011;2012;49.794;9.722;2023-05-10T13:50:08;4.13;;;1.50;;
3995;SDS011;2012;49.794;9.722;2023-05-10T13:52:35;3.43;;;1.40;;
3995;SDS011;2012;49.794;9.722;2023-05-10T13:55:02;1.23;;;1.13;;
3995;SDS011;2012;49.794;9.722;2023-05-10T13:57:29;2.37;;;1.30;;
3995;SDS011;2012;49.794;9.722;2023-05-10T13:59:56;1.50;;;1.40;;
3995;SDS011;2012;49.794;9.722;2023-05-10T14:02:24;3.90;;;1.40;;
3995;SDS011;2012;49.794;9.722;2023-05-10T14:04:51;3.20;;;1.90;;
3995;SDS011;2012;49.794;9.722;2023-05-10T14:07:18;2.37;;;1.40;;
3995;SDS011;2012;49.794;9.722;2023-05-10T14:09:45;1.63;;;1.53;;
3995;SDS011;2012;49.794;9.722;2023-05-10T14:12:12;5.17;;;1.70;;
3995;SDS011;2012;49.794;9.722;2023-05-10T14:14:40;2.83;;;1.83;;
3995;SDS011;2012;49.794;9.722;2023-05-10T14:17:07;3.40;;;1.50;;
3995;SDS011;2012;49.794;9.722;2023-05-10T14:19:37;6.50;;;2.00;;
3995;SDS011;2012;49.794;9.722;2023-05-10T14:22:05;7.30;;;1.50;;
3995;SDS011;2012;49.794;9.722;2023-05-10T14:24:32;1.87;;;1.60;;
3995;SDS011;2012;49.794;9.722;2023-05-10T14:26:59;7.43;;;1.80;;
3995;SDS011;2012;49.794;9.722;2023-05-10T14:29:26;7.13;;;1.63;;
3995;SDS011;2012;49.794;9.722;2023-05-10T14:31:53;4.60;;;1.53;;
3995;SDS011;2012;49.794;9.722;2023-05-10T14:34:20;1.33;;;1.23;;
3995;SDS011;2012;49.794;9.722;2023-05-10T14:36:47;1.93;;;1.43;;
3995;SDS011;2012;49.794;9.722;2023-05-10T14:39:14;1.80;;;1.40;;
3995;SDS011;2012;49.794;9.722;2023-05-10T14:41:41;4.47;;;1.40;;
3995;SDS011;2012;49.794;9.722;2023-05-10T14:44:09;6.93;;;1.37;;
3995;SDS011;2012;49.794;9.722;2023-05-10T14:46:36;1.97;;;1.30;;
3995;SDS011;2012;49.794;9.722;2023-05-10T14:49:03;1.70;;;1.60;;
3995;SDS011;2012;49.794;9.722;2023-05-10T14:51:30;1.97;;;1.20;;
3995;SDS011;2012;49.794;9.722;2023-05-10T14:53:58;4.93;;;1.17;;
3995;SDS011;2012;49.794;9.722;2023-05-10T14:56:25;3.33;;;1.37;;
3995;SDS011;2012;49.794;9.722;2023-05-10T14:58:52;5.63;;;1.30;;
3995;SDS011;2012;49.794;9.722;2023-05-10T15:01:19;1.37;;;1.27;;
3995;SDS011;2012;49.794;9.722;2023-05-10T15:03:47;2.23;;;1.30;;
3995;SDS011;2012;49.794;9.722;2023-05-10T15:06:14;2.30;;;1.40;;
3995;SDS011;2012;49.794;9.722;2023-05-10T15:08:44;1.67;;;1.30;;
3995;SDS011;2012;49.794;9.722;2023-05-10T15:11:11;3.70;;;1.87;;
3995;SDS011;2012;49.794;9.722;2023-05-10T15:13:38;8.30;;;2.63;;
3995;SDS011;2012;49.794;9.722;2023-05-10T15:16:05;2.97;;;1.70;;
3995;SDS011;2012;49.794;9.722;2023-05-10T15:18:32;3.20;;;1.60;;
3995;SDS011;2012;49.794;9.722;2023-05-10T15:20:59;3.47;;;2.40;;
3995;SDS011;2012;49.794;9.722;2023-05-10T15:23:26;6.97;;;4.20;;
3995;SDS011;2012;49.794;9.722;2023-05-10T15:25:53;4.37;;;2.77;;
3995;SDS011;2012;49.794;9.722;2023-05-10T15:28:22;1.90;;;1.70;;
3995;SDS011;2012;49.794;9.722;2023-05-10T15:30:49;8.60;;;4.63;;
3995;SDS011;2012;49.794;9.722;2023-05-10T15:33:16;9.97;;;4.50;;
3995;SDS011;2012;49.794;9.722;2023-05-10T15:35:44;4.57;;;1.73;;
3995;SDS011;2012;49.794;9.722;2023-05-10T15:38:11;6.73;;;1.40;;
3995;SDS011;2012;49.794;9.722;2023-05-10T15:40:37;10.73;;;1.37;;
3995;SDS011;2012;49.794;9.722;2023-05-10T15:43:04;19.73;;;6.90;;
3995;SDS011;2012;49.794;9.722;2023-05-10T15:45:31;13.53;;;7.43;;
3995;SDS011;2012;49.794;9.722;2023-05-10T15:48:02;5.13;;;2.10;;